createdAt,value
2022-09-01T00:02:08.634Z,18.04
2022-09-01T00:04:16.467Z,17.93
2022-09-01T00:06:24.097Z,17.96
2022-09-01T00:08:27.421Z,17.90
2022-09-01T00:10:30.794Z,17.89
2022-09-01T00:12:34.247Z,17.91
2022-09-01T00:14:41.641Z,17.91
2022-09-01T00:16:46.530Z,17.79
2022-09-01T00:18:55.571Z,17.71
2022-09-01T00:20:59.643Z,17.78
2022-09-01T00:23:02.759Z,17.76
2022-09-01T00:25:07.159Z,17.66
2022-09-01T00:27:10.331Z,17.58
2022-09-01T00:29:13.799Z,17.53
2022-09-01T00:31:17.267Z,17.46
2022-09-01T00:33:22.043Z,17.39
2022-09-01T00:35:25.156Z,17.35
2022-09-01T00:37:28.284Z,17.32
2022-09-01T00:39:31.551Z,17.30
2022-09-01T00:41:38.202Z,17.28
2022-09-01T00:43:44.495Z,17.24
2022-09-01T00:45:48.088Z,17.25
2022-09-01T00:47:51.105Z,17.21
2022-09-01T00:49:55.498Z,17.19
2022-09-01T00:52:01.420Z,17.19
2022-09-01T00:54:07.287Z,17.21
2022-09-01T00:56:10.633Z,17.20
2022-09-01T00:58:19.981Z,17.21
2022-09-01T01:00:26.253Z,17.22
2022-09-01T01:02:29.731Z,17.18
2022-09-01T01:04:32.653Z,17.15
2022-09-01T01:06:37.369Z,17.11
2022-09-01T01:08:44.501Z,17.05
2022-09-01T01:10:48.304Z,16.92
2022-09-01T01:12:52.025Z,16.88
2022-09-01T01:14:55.078Z,16.89
2022-09-01T01:16:58.283Z,16.70
2022-09-01T01:19:01.438Z,16.77
2022-09-01T01:21:25.602Z,16.69
2022-09-01T01:23:31.639Z,16.67
2022-09-01T01:25:39.186Z,16.62
2022-09-01T01:27:43.638Z,16.60
2022-09-01T01:29:47.703Z,16.50
2022-09-01T01:31:53.948Z,16.52
2022-09-01T01:33:59.210Z,16.52
2022-09-01T01:36:02.358Z,16.46
2022-09-01T01:38:07.994Z,16.44
2022-09-01T01:40:15.855Z,16.36
2022-09-01T01:42:20.893Z,16.37
2022-09-01T01:44:28.521Z,16.24
2022-09-01T01:46:37.223Z,16.21
2022-09-01T01:48:42.908Z,16.17
2022-09-01T01:50:49.320Z,16.02
2022-09-01T01:52:58.181Z,15.94
2022-09-01T01:55:05.202Z,15.93
2022-09-01T01:57:08.827Z,15.85
2022-09-01T01:59:16.538Z,15.80
2022-09-01T02:01:22.267Z,15.75
2022-09-01T02:03:30.730Z,15.79
2022-09-01T02:05:35.003Z,15.79
2022-09-01T02:07:43.625Z,15.74
2022-09-01T02:09:48.271Z,15.68
2022-09-01T02:11:57.450Z,15.60
2022-09-01T02:14:02.044Z,15.45
2022-09-01T02:16:13.155Z,15.48
2022-09-01T02:18:19.471Z,15.37
2022-09-01T02:20:24.872Z,15.32
2022-09-01T02:22:28.515Z,15.30
2022-09-01T02:24:32.258Z,15.23
2022-09-01T02:26:38.774Z,15.21
2022-09-01T02:28:42.611Z,15.15
2022-09-01T02:30:46.585Z,15.19
2022-09-01T02:32:51.268Z,15.25
2022-09-01T02:35:01.237Z,15.26
2022-09-01T02:37:04.518Z,15.30
2022-09-01T02:39:08.072Z,15.27
2022-09-01T02:41:12.042Z,15.16
2022-09-01T02:43:20.431Z,15.25
2022-09-01T02:45:25.590Z,15.20
2022-09-01T02:47:29.724Z,15.20
2022-09-01T02:49:36.144Z,15.13
2022-09-01T02:51:39.221Z,15.13
2022-09-01T02:53:43.792Z,15.13
2022-09-01T02:55:46.863Z,15.05
2022-09-01T02:57:57.189Z,15.15
2022-09-01T03:00:01.073Z,15.13
2022-09-01T03:02:08.264Z,15.11
2022-09-01T03:04:12.956Z,15.10
2022-09-01T03:06:19.787Z,15.10
2022-09-01T03:08:24.680Z,15.00
2022-09-01T03:10:33.322Z,14.95
2022-09-01T03:12:37.155Z,14.93
2022-09-01T03:14:40.222Z,14.94
2022-09-01T03:16:43.267Z,14.90
2022-09-01T03:18:46.364Z,14.94
2022-09-01T03:20:53.007Z,14.99
2022-09-01T03:22:59.196Z,15.05
2022-09-01T03:25:02.123Z,15.06
2022-09-01T03:27:06.058Z,15.04
2022-09-01T03:29:09.841Z,15.12
2022-09-01T03:31:13.076Z,15.09
2022-09-01T03:33:17.033Z,15.17
2022-09-01T03:35:20.068Z,15.16
2022-09-01T03:37:23.289Z,15.23
2022-09-01T03:39:31.271Z,15.23
2022-09-01T03:41:35.034Z,15.25
2022-09-01T03:43:38.117Z,15.19
2022-09-01T03:45:49.160Z,15.19
2022-09-01T03:47:52.719Z,15.11
2022-09-01T03:49:56.979Z,15.08
2022-09-01T03:52:01.269Z,14.98
2022-09-01T03:54:04.443Z,14.91
2022-09-01T03:56:09.118Z,14.89
2022-09-01T03:58:13.663Z,14.86
2022-09-01T04:00:20.840Z,14.88
2022-09-01T04:02:24.109Z,14.82
2022-09-01T04:04:29.411Z,14.80
2022-09-01T04:06:32.541Z,14.77
2022-09-01T04:08:35.570Z,14.72
2022-09-01T04:10:51.227Z,14.59
2022-09-01T04:12:59.128Z,14.52
2022-09-01T04:15:02.161Z,14.49
2022-09-01T04:17:26.429Z,14.49
2022-09-01T04:19:37.085Z,14.53
2022-09-01T04:21:40.406Z,14.49
2022-09-01T04:23:43.473Z,14.46
2022-09-01T04:25:46.768Z,14.47
2022-09-01T04:27:50.528Z,14.45
2022-09-01T04:29:57.779Z,14.49
2022-09-01T04:32:06.065Z,14.49
2022-09-01T04:34:13.941Z,14.52
2022-09-01T04:36:22.393Z,14.48
2022-09-01T04:38:25.909Z,14.50
2022-09-01T04:40:29.140Z,14.42
2022-09-01T04:42:32.716Z,14.49
2022-09-01T04:44:37.971Z,14.50
2022-09-01T04:46:46.463Z,14.53
2022-09-01T04:48:53.285Z,14.49
2022-09-01T04:50:58.281Z,14.51
2022-09-01T04:53:06.982Z,14.47
2022-09-01T04:55:24.786Z,14.42
2022-09-01T04:57:29.448Z,14.38
2022-09-01T04:59:32.784Z,14.38
2022-09-01T05:01:43.299Z,14.32
2022-09-01T05:03:59.183Z,14.32
2022-09-01T05:06:17.680Z,14.23
2022-09-01T05:08:25.667Z,14.29
2022-09-01T05:10:33.500Z,14.33
2022-09-01T05:12:58.250Z,14.36
2022-09-01T05:15:21.716Z,14.41
2022-09-01T05:17:26.240Z,14.46
2022-09-01T05:19:31.078Z,14.50
2022-09-01T05:21:41.849Z,14.56
2022-09-01T05:24:05.078Z,14.58
2022-09-01T05:26:17.992Z,14.63
2022-09-01T05:28:25.320Z,14.65
2022-09-01T05:30:28.809Z,14.72
2022-09-01T05:32:33.627Z,14.74
2022-09-01T05:34:39.753Z,14.64
2022-09-01T05:36:46.579Z,14.75
2022-09-01T05:38:52.364Z,15.07
2022-09-01T05:41:02.139Z,15.33
2022-09-01T05:43:05.139Z,15.66
2022-09-01T05:45:10.769Z,15.93
2022-09-01T05:47:20.652Z,16.13
2022-09-01T05:49:26.160Z,16.19
2022-09-01T05:51:44.465Z,16.62
2022-09-01T05:53:52.187Z,17.22
2022-09-01T05:55:57.615Z,17.67
2022-09-01T05:58:00.951Z,18.11
2022-09-01T06:00:13.977Z,18.56
2022-09-01T06:02:17.284Z,18.70
2022-09-01T06:04:20.590Z,18.80
2022-09-01T06:06:25.181Z,19.68
2022-09-01T06:08:30.324Z,20.28
2022-09-01T06:10:35.292Z,20.53
2022-09-01T06:12:38.824Z,20.69
2022-09-01T06:14:44.226Z,21.17
2022-09-01T06:16:48.477Z,21.33
2022-09-01T06:18:54.375Z,21.18
2022-09-01T06:20:59.040Z,21.82
2022-09-01T06:23:02.532Z,22.11
2022-09-01T06:25:08.920Z,22.03
2022-09-01T06:27:20.284Z,22.33
2022-09-01T06:29:23.605Z,22.91
2022-09-01T06:31:29.350Z,23.33
2022-09-01T06:33:32.514Z,23.88
2022-09-01T06:35:35.793Z,23.91
2022-09-01T06:37:39.317Z,24.70
2022-09-01T06:39:45.811Z,25.17
2022-09-01T06:41:53.130Z,25.02
2022-09-01T06:44:00.917Z,25.39
2022-09-01T06:46:04.094Z,25.97
2022-09-01T06:48:07.740Z,26.91
2022-09-01T06:51:14.525Z,26.80
2022-09-01T06:55:07.636Z,27.40
2022-09-01T06:59:37.054Z,27.73
2022-09-01T07:01:41.449Z,26.10
2022-09-01T07:03:45.411Z,27.46
2022-09-01T07:09:19.088Z,28.54
2022-09-01T07:12:08.798Z,28.47
2022-09-01T07:13:32.115Z,27.98
2022-09-01T07:18:04.495Z,29.33
2022-09-01T07:20:26.043Z,28.85
2022-09-01T07:23:02.962Z,28.64
2022-09-01T07:25:11.810Z,29.47
2022-09-01T07:27:36.183Z,29.87
2022-09-01T07:29:45.242Z,28.82
2022-09-01T07:31:49.661Z,29.84
2022-09-01T07:34:37.615Z,30.53
2022-09-01T07:36:26.798Z,30.84
2022-09-01T07:42:58.861Z,27.17
2022-09-01T07:43:37.754Z,30.85
2022-09-01T07:46:36.332Z,31.59
2022-09-01T07:53:18.546Z,31.83
2022-09-01T07:55:22.634Z,32.29
2022-09-01T07:57:26.528Z,31.65
2022-09-01T07:59:31.123Z,30.18
2022-09-01T08:01:52.748Z,31.54
2022-09-01T08:03:58.944Z,31.59
2022-09-01T08:06:06.461Z,31.70
2022-09-01T08:08:18.849Z,31.05
2022-09-01T08:10:22.981Z,32.01
2022-09-01T08:12:29.371Z,30.86
2022-09-01T08:14:34.112Z,31.00
2022-09-01T08:16:40.288Z,31.67
2022-09-01T08:18:56.279Z,30.74
2022-09-01T08:21:28.570Z,30.39
2022-09-01T08:23:50.334Z,31.22
2022-09-01T08:25:54.375Z,31.05
2022-09-01T08:28:00.859Z,30.47
2022-09-01T08:30:05.790Z,29.89
2022-09-01T08:32:09.301Z,30.63
2022-09-01T08:34:13.682Z,31.05
2022-09-01T08:36:22.879Z,31.15
2022-09-01T08:38:26.996Z,30.54
2022-09-01T08:40:30.427Z,30.15
2022-09-01T08:42:45.925Z,30.41
2022-09-01T08:44:55.855Z,29.80
2022-09-01T08:47:02.683Z,30.06
2022-09-01T08:49:26.580Z,30.16
2022-09-01T08:52:07.806Z,29.20
2022-09-01T08:54:20.131Z,29.17
2022-09-01T08:56:35.468Z,29.21
2022-09-01T08:58:38.837Z,29.24
2022-09-01T09:01:07.071Z,29.15
2022-09-01T09:03:17.395Z,28.54
2022-09-01T09:05:29.407Z,28.94
2022-09-01T09:07:45.027Z,28.99
2022-09-01T09:09:54.277Z,29.23
2022-09-01T09:12:09.905Z,27.57
2022-09-01T09:14:21.407Z,27.96
2022-09-01T09:16:27.761Z,28.26
2022-09-01T09:18:39.859Z,27.71
2022-09-01T09:20:44.365Z,27.87
2022-09-01T09:22:50.262Z,28.11
2022-09-01T09:24:56.299Z,28.01
2022-09-01T09:27:00.621Z,28.11
2022-09-01T09:29:03.744Z,28.26
2022-09-01T09:31:29.981Z,28.12
2022-09-01T09:33:51.272Z,28.18
2022-09-01T09:35:57.636Z,27.32
2022-09-01T09:38:28.795Z,28.44
2022-09-01T09:40:43.334Z,28.55
2022-09-01T09:43:05.822Z,28.05
2022-09-01T09:45:23.054Z,27.66
2022-09-01T09:47:44.200Z,28.49
2022-09-01T09:49:48.973Z,28.34
2022-09-01T09:51:54.670Z,28.69
2022-09-01T09:54:13.303Z,28.50
2022-09-01T09:56:19.860Z,28.10
2022-09-01T09:58:26.719Z,27.68
2022-09-01T10:00:32.289Z,27.57
2022-09-01T10:02:37.399Z,28.11
2022-09-01T10:04:40.497Z,28.10
2022-09-01T10:06:46.972Z,27.72
2022-09-01T10:08:50.114Z,27.68
2022-09-01T10:10:58.329Z,27.11
2022-09-01T10:13:02.829Z,27.40
2022-09-01T10:15:12.533Z,27.82
2022-09-01T10:17:18.840Z,28.03
2022-09-01T10:19:23.291Z,27.73
2022-09-01T10:21:31.625Z,27.97
2022-09-01T10:23:37.765Z,27.07
2022-09-01T10:25:42.512Z,27.85
2022-09-01T10:27:50.100Z,28.15
2022-09-01T10:30:12.625Z,27.75
2022-09-01T10:32:35.193Z,27.96
2022-09-01T10:34:42.092Z,27.45
2022-09-01T10:36:47.254Z,27.60
2022-09-01T10:39:04.631Z,26.97
2022-09-01T10:41:09.099Z,26.87
2022-09-01T10:43:42.848Z,27.01
2022-09-01T10:45:51.261Z,27.36
2022-09-01T10:47:58.934Z,27.48
2022-09-01T10:50:07.926Z,27.54
2022-09-01T10:52:14.120Z,27.59
2022-09-01T10:54:52.785Z,27.57
2022-09-01T10:57:03.971Z,28.07
2022-09-01T10:59:38.691Z,28.16
2022-09-01T11:02:35.370Z,28.34
2022-09-01T11:05:11.991Z,28.52
2022-09-01T11:07:50.478Z,28.62
2022-09-01T11:10:34.241Z,28.00
2022-09-01T11:12:46.674Z,28.14
2022-09-01T11:14:52.953Z,28.31
2022-09-01T11:17:16.998Z,28.36
2022-09-01T11:19:37.581Z,27.88
2022-09-01T11:21:41.072Z,28.23
2022-09-01T11:23:46.138Z,28.24
2022-09-01T11:26:19.143Z,27.95
2022-09-01T11:28:38.814Z,27.83
2022-09-01T11:30:52.855Z,27.81
2022-09-01T11:33:01.318Z,28.00
2022-09-01T11:35:07.160Z,28.06
2022-09-01T11:37:15.222Z,27.13
2022-09-01T11:39:30.222Z,27.34
2022-09-01T11:41:36.308Z,27.36
2022-09-01T11:43:39.282Z,27.82
2022-09-01T11:45:52.457Z,27.94
2022-09-01T11:47:57.269Z,28.15
2022-09-01T11:50:03.663Z,28.80
2022-09-01T11:52:07.345Z,28.30
2022-09-01T11:54:10.300Z,28.08
2022-09-01T11:56:16.915Z,28.10
2022-09-01T11:58:33.282Z,27.93
2022-09-01T12:00:39.357Z,28.28
2022-09-01T12:02:48.951Z,27.84
2022-09-01T12:04:53.590Z,27.97
2022-09-01T12:06:59.118Z,28.22
2022-09-01T12:09:05.034Z,28.46
2022-09-01T12:11:11.185Z,28.05
2022-09-01T12:13:20.468Z,28.30
2022-09-01T12:15:26.176Z,28.66
2022-09-01T12:17:29.144Z,28.79
2022-09-01T12:19:35.718Z,28.31
2022-09-01T12:21:42.847Z,28.06
2022-09-01T12:23:46.414Z,27.92
2022-09-01T12:25:49.489Z,27.80
2022-09-01T12:27:52.741Z,27.97
2022-09-01T12:29:56.729Z,27.57
2022-09-01T12:32:00.820Z,28.09
2022-09-01T12:34:04.785Z,28.72
2022-09-01T12:36:22.059Z,28.45
2022-09-01T12:38:31.009Z,29.09
2022-09-01T12:40:36.232Z,29.17
2022-09-01T12:42:41.398Z,29.45
2022-09-01T12:44:50.481Z,28.40
2022-09-01T12:46:53.913Z,27.83
2022-09-01T12:49:18.077Z,28.53
2022-09-01T12:51:27.996Z,28.60
2022-09-01T12:53:36.930Z,28.27
2022-09-01T12:55:47.652Z,28.86
2022-09-01T12:57:52.801Z,29.18
2022-09-01T13:00:18.047Z,28.34
2022-09-01T13:02:28.300Z,28.02
2022-09-01T13:04:32.748Z,27.31
2022-09-01T13:06:37.438Z,28.05
2022-09-01T13:08:40.470Z,28.15
2022-09-01T13:10:45.659Z,27.77
2022-09-01T13:12:49.017Z,27.78
2022-09-01T13:14:53.260Z,26.79
2022-09-01T13:16:56.253Z,26.82
2022-09-01T13:19:21.799Z,26.44
2022-09-01T13:21:22.817Z,27.17
2022-09-01T13:23:27.472Z,27.57
2022-09-01T13:25:32.799Z,27.82
2022-09-01T13:27:37.367Z,27.86
2022-09-01T13:29:41.749Z,28.57
2022-09-01T13:32:16.691Z,29.03
2022-09-01T13:34:10.747Z,28.40
2022-09-01T13:38:40.376Z,29.16
2022-09-01T13:40:45.787Z,29.36
2022-09-01T13:42:50.582Z,29.27
2022-09-01T13:44:55.389Z,28.36
2022-09-01T13:47:00.548Z,28.53
2022-09-01T13:49:04.998Z,28.77
2022-09-01T13:51:27.991Z,28.50
2022-09-01T13:53:31.131Z,28.85
2022-09-01T13:55:40.305Z,28.12
2022-09-01T13:57:43.528Z,27.59
2022-09-01T13:59:47.445Z,28.02
2022-09-01T14:01:50.413Z,28.69
2022-09-01T14:03:58.291Z,27.97
2022-09-01T14:06:03.125Z,27.96
2022-09-01T14:08:08.015Z,28.28
2022-09-01T14:10:11.587Z,27.40
2022-09-01T14:12:16.060Z,27.84
2022-09-01T14:14:19.374Z,28.30
2022-09-01T14:16:22.421Z,28.11
2022-09-01T14:18:36.909Z,27.86
2022-09-01T14:20:41.225Z,28.42
2022-09-01T14:22:45.311Z,28.01
2022-09-01T14:24:48.583Z,27.49
2022-09-01T14:26:51.601Z,27.68
2022-09-01T14:28:56.138Z,27.81
2022-09-01T14:33:03.523Z,27.34
2022-09-01T14:35:08.599Z,27.31
2022-09-01T14:37:11.607Z,27.46
2022-09-01T14:39:14.538Z,27.08
2022-09-01T14:41:21.889Z,27.16
2022-09-01T14:43:25.947Z,27.50
2022-09-01T14:45:30.347Z,27.06
2022-09-01T14:47:39.675Z,26.73
2022-09-01T14:49:43.035Z,26.87
2022-09-01T14:54:09.608Z,27.53
2022-09-01T14:56:13.721Z,27.28
2022-09-01T14:58:17.032Z,26.79
2022-09-01T15:00:20.567Z,26.82
2022-09-01T15:02:25.338Z,26.72
2022-09-01T15:04:29.632Z,26.53
2022-09-01T15:06:34.193Z,26.39
2022-09-01T15:08:37.190Z,26.30
2022-09-01T15:10:41.383Z,26.32
2022-09-01T15:12:45.328Z,26.30
2022-09-01T15:14:49.174Z,26.77
2022-09-01T15:16:52.382Z,26.76
2022-09-01T15:18:57.003Z,26.61
2022-09-01T15:20:59.942Z,26.12
2022-09-01T15:23:03.627Z,26.02
2022-09-01T15:25:08.099Z,26.30
2022-09-01T15:27:11.535Z,26.21
2022-09-01T15:29:15.192Z,25.75
2022-09-01T15:31:19.839Z,25.82
2022-09-01T15:33:35.802Z,25.96
2022-09-01T15:35:43.416Z,25.86
2022-09-01T15:37:47.581Z,26.05
2022-09-01T15:39:50.745Z,25.97
2022-09-01T15:41:53.951Z,26.04
2022-09-01T15:43:57.189Z,26.11
2022-09-01T15:46:02.058Z,26.11
2022-09-01T15:48:05.074Z,25.93
2022-09-01T15:50:10.498Z,25.79
2022-09-01T15:52:21.132Z,25.61
2022-09-01T15:54:30.194Z,25.48
2022-09-01T15:56:33.682Z,25.66
2022-09-01T15:58:59.479Z,25.61
2022-09-01T16:01:00.784Z,25.52
2022-09-01T16:03:04.229Z,25.63
2022-09-01T16:05:08.411Z,25.58
2022-09-01T16:07:11.314Z,25.64
2022-09-01T16:09:15.574Z,25.62
2022-09-01T16:11:18.536Z,25.53
2022-09-01T16:13:23.472Z,25.25
2022-09-01T16:15:26.578Z,25.24
2022-09-01T16:17:45.448Z,25.27
2022-09-01T16:19:54.665Z,25.25
2022-09-01T16:22:05.878Z,25.13
2022-09-01T16:24:11.905Z,25.05
2022-09-01T16:26:17.963Z,24.94
2022-09-01T16:28:28.129Z,24.88
2022-09-01T16:30:31.130Z,24.98
2022-09-01T16:32:53.083Z,24.69
2022-09-01T16:34:56.272Z,24.60
2022-09-01T16:37:03.192Z,24.69
2022-09-01T16:39:14.310Z,24.72
2022-09-01T16:41:34.465Z,24.58
2022-09-01T16:43:42.688Z,24.66
2022-09-01T16:45:52.875Z,24.49
2022-09-01T16:48:01.599Z,24.33
2022-09-01T16:50:12.509Z,24.31
2022-09-01T16:52:21.983Z,24.23
2022-09-01T16:54:30.994Z,24.32
2022-09-01T16:56:37.723Z,24.22
2022-09-01T16:58:48.575Z,24.16
2022-09-01T17:00:58.977Z,24.21
2022-09-01T17:03:08.854Z,24.11
2022-09-01T17:05:23.983Z,24.06
2022-09-01T17:07:30.577Z,24.13
2022-09-01T17:09:36.974Z,24.03
2022-09-01T17:11:49.464Z,24.03
2022-09-01T17:13:53.256Z,23.97
2022-09-01T17:16:02.620Z,23.87
2022-09-01T17:18:21.783Z,23.89
2022-09-01T17:20:29.947Z,23.91
2022-09-01T17:22:34.474Z,23.84
2022-09-01T17:24:39.590Z,23.83
2022-09-01T17:26:50.744Z,23.76
2022-09-01T17:28:56.972Z,23.68
2022-09-01T17:31:05.584Z,23.64
2022-09-01T17:33:18.550Z,23.70
2022-09-01T17:35:27.633Z,23.65
2022-09-01T17:37:39.302Z,23.61
2022-09-01T17:39:49.294Z,23.52
2022-09-01T17:41:58.073Z,23.42
2022-09-01T17:44:12.974Z,23.42
2022-09-01T17:46:22.855Z,23.27
2022-09-01T17:48:37.406Z,23.26
2022-09-01T17:50:51.242Z,23.21
2022-09-01T17:53:03.879Z,23.18
2022-09-01T17:55:22.804Z,23.10
2022-09-01T17:57:33.619Z,23.08
2022-09-01T17:59:41.515Z,22.96
2022-09-01T18:01:52.647Z,22.95
2022-09-01T18:04:29.255Z,22.93
2022-09-01T18:06:35.513Z,22.86
2022-09-01T18:08:40.879Z,22.87
2022-09-01T18:10:49.508Z,22.76
2022-09-01T18:13:01.925Z,22.73
2022-09-01T18:15:09.855Z,22.73
2022-09-01T18:17:17.037Z,22.65
2022-09-01T18:19:23.712Z,22.52
2022-09-01T18:21:31.170Z,22.58
2022-09-01T18:23:39.884Z,22.53
2022-09-01T18:25:46.524Z,22.44
2022-09-01T18:27:49.777Z,22.34
2022-09-01T18:29:54.626Z,22.31
2022-09-01T18:32:23.094Z,22.27
2022-09-01T18:34:31.912Z,22.24
2022-09-01T18:36:42.197Z,22.24
2022-09-01T18:38:51.395Z,22.22
2022-09-01T18:41:09.945Z,22.19
2022-09-01T18:43:16.913Z,22.13
2022-09-01T18:45:28.050Z,21.99
2022-09-01T18:47:33.524Z,21.98
2022-09-01T18:49:45.055Z,21.99
2022-09-01T18:51:56.567Z,21.95
2022-09-01T18:54:04.062Z,21.91
2022-09-01T18:56:14.218Z,21.88
2022-09-01T18:58:31.751Z,21.85
2022-09-01T19:00:42.262Z,21.75
2022-09-01T19:02:57.949Z,21.71
2022-09-01T19:05:04.890Z,21.70
2022-09-01T19:07:12.569Z,21.61
2022-09-01T19:09:19.123Z,21.59
2022-09-01T19:11:28.110Z,21.53
2022-09-01T19:13:43.171Z,21.54
2022-09-01T19:15:53.620Z,21.47
2022-09-01T19:18:10.126Z,21.38
2022-09-01T19:20:14.980Z,21.41
2022-09-01T19:22:21.566Z,21.33
2022-09-01T19:24:28.564Z,21.32
2022-09-01T19:26:38.112Z,21.31
2022-09-01T19:28:47.654Z,21.25
2022-09-01T19:30:55.413Z,21.22
2022-09-01T19:33:00.189Z,21.22
2022-09-01T19:35:11.160Z,21.17
2022-09-01T19:37:14.404Z,21.10
2022-09-01T19:39:20.136Z,21.08
2022-09-01T19:41:33.118Z,21.03
2022-09-01T19:43:40.314Z,21.01
2022-09-01T19:45:52.496Z,20.95
2022-09-01T19:48:04.191Z,20.95
2022-09-01T19:50:12.163Z,20.88
2022-09-01T19:52:21.224Z,20.84
2022-09-01T19:54:29.227Z,20.85
2022-09-01T19:56:36.575Z,20.81
2022-09-01T19:58:48.291Z,20.71
2022-09-01T20:00:53.712Z,20.69
2022-09-01T20:03:03.608Z,20.70
2022-09-01T20:05:12.932Z,20.69
2022-09-01T20:07:23.461Z,20.63
2022-09-01T20:09:35.098Z,20.60
2022-09-01T20:11:44.778Z,20.58
2022-09-01T20:14:02.973Z,20.56
2022-09-01T20:16:12.392Z,20.55
2022-09-01T20:18:22.490Z,20.49
2022-09-01T20:20:28.206Z,20.45
2022-09-01T20:22:35.847Z,20.43
2022-09-01T20:24:40.244Z,20.41
2022-09-01T20:26:47.665Z,20.35
2022-09-01T20:28:55.158Z,20.35
2022-09-01T20:31:05.246Z,20.31
2022-09-01T20:33:17.076Z,20.31
2022-09-01T20:35:25.124Z,20.29
2022-09-01T20:37:34.440Z,20.29
2022-09-01T20:39:58.509Z,20.26
2022-09-01T20:42:04.572Z,20.26
2022-09-01T20:44:15.616Z,20.22
2022-09-01T20:46:20.737Z,20.17
2022-09-01T20:48:25.606Z,20.13
2022-09-01T20:50:37.934Z,20.04
2022-09-01T20:53:05.615Z,20.06
2022-09-01T20:55:12.561Z,19.97
2022-09-01T20:57:24.073Z,19.97
2022-09-01T20:59:31.925Z,19.92
2022-09-01T21:01:38.891Z,19.89
2022-09-01T21:03:47.673Z,19.86
2022-09-01T21:05:57.397Z,19.81
2022-09-01T21:08:24.838Z,19.67
2022-09-01T21:10:32.215Z,19.64
2022-09-01T21:12:37.725Z,19.56
2022-09-01T21:14:48.946Z,19.52
2022-09-01T21:17:02.171Z,19.44
2022-09-01T21:19:11.151Z,19.39
2022-09-01T21:21:23.027Z,19.32
2022-09-01T21:23:26.316Z,19.19
2022-09-01T21:25:29.322Z,19.08
2022-09-01T21:27:36.986Z,19.06
2022-09-01T21:29:48.527Z,18.99
2022-09-01T21:31:52.121Z,19.04
2022-09-01T21:33:55.218Z,18.98
2022-09-01T21:35:58.640Z,18.99
2022-09-01T21:38:03.577Z,18.93
2022-09-01T21:40:08.167Z,18.90
2022-09-01T21:42:12.282Z,18.87
2022-09-01T21:44:15.330Z,18.87
2022-09-01T21:46:20.298Z,18.81
2022-09-01T21:48:23.439Z,18.78
2022-09-01T21:50:26.596Z,18.77
2022-09-01T21:52:29.859Z,18.76
2022-09-01T21:54:34.922Z,18.73
2022-09-01T21:56:38.027Z,18.71
2022-09-01T21:58:41.441Z,18.75
2022-09-01T22:00:44.618Z,18.67
2022-09-01T22:02:47.872Z,18.65
2022-09-01T22:04:51.076Z,18.64
2022-09-01T22:06:54.163Z,18.63
2022-09-01T22:08:57.098Z,18.55
2022-09-01T22:11:01.882Z,18.51
2022-09-01T22:13:05.276Z,18.49
2022-09-01T22:15:10.409Z,18.48
2022-09-01T22:17:13.373Z,18.53
2022-09-01T22:19:16.813Z,18.47
2022-09-01T22:21:21.198Z,18.35
2022-09-01T22:23:24.425Z,18.27
2022-09-01T22:25:28.249Z,18.25
2022-09-01T22:27:32.733Z,18.23
2022-09-01T22:29:35.717Z,18.20
2022-09-01T22:31:40.405Z,18.15
2022-09-01T22:33:43.521Z,18.16
2022-09-01T22:35:49.875Z,18.16
2022-09-01T22:37:52.949Z,18.10
2022-09-01T22:39:55.990Z,18.09
2022-09-01T22:41:59.369Z,18.04
2022-09-01T22:44:04.624Z,18.01
2022-09-01T22:46:08.268Z,17.93
2022-09-01T22:48:11.348Z,17.93
2022-09-01T22:50:15.706Z,17.90
2022-09-01T22:52:18.649Z,17.90
2022-09-01T22:54:21.611Z,17.82
2022-09-01T22:56:26.623Z,17.83
2022-09-01T22:58:29.656Z,17.78
2022-09-01T23:00:35.275Z,17.67
2022-09-01T23:02:38.592Z,17.65
2022-09-01T23:04:42.583Z,17.65
2022-09-01T23:06:48.478Z,17.57
2022-09-01T23:08:51.489Z,17.52
2022-09-01T23:10:54.529Z,17.49
2022-09-01T23:12:57.697Z,17.44
2022-09-01T23:15:02.221Z,17.41
2022-09-01T23:17:08.430Z,17.39
2022-09-01T23:19:12.030Z,17.35
2022-09-01T23:21:17.383Z,17.32
2022-09-01T23:23:20.477Z,17.29
2022-09-01T23:25:24.288Z,17.27
2022-09-01T23:27:27.267Z,17.17
2022-09-01T23:29:30.482Z,17.17
2022-09-01T23:31:37.239Z,17.16
2022-09-01T23:33:42.009Z,17.13
2022-09-01T23:35:46.234Z,17.10
2022-09-01T23:37:49.851Z,17.05
2022-09-01T23:39:52.959Z,17.01
2022-09-01T23:41:55.878Z,16.98
2022-09-01T23:44:01.361Z,16.94
2022-09-01T23:46:05.579Z,16.90
2022-09-01T23:48:08.640Z,16.83
2022-09-01T23:50:13.275Z,16.87
2022-09-01T23:52:16.185Z,16.84
2022-09-01T23:54:20.093Z,16.82
2022-09-01T23:56:25.524Z,16.65
2022-09-01T23:58:29.926Z,16.72
